Time;durP1;ratioP1;P1;durP2;ratioP2;P2;SDS_P1;SDS_P2;PMS_P1;PMS_P2;Temp;Humidity;BMP_temperature;BMP_pressure;BME280_temperature;BME280_humidity;BME280_pressure;Samples;Min_cycle;Max_cycle;Signal;HPM_P1;HPM_P2
2021/01/28 00:02:19;;;;;;;10.93;7.40;;;0.50;99.90;;;;;;5048883;28;20821;-50
2021/01/28 00:04:45;;;;;;;12.90;7.00;;;0.50;99.90;;;;;;5049918;28;20473;-50
2021/01/28 00:07:12;;;;;;;10.37;6.53;;;0.50;99.90;;;;;;5049940;28;20963;-52
2021/01/28 00:09:38;;;;;;;11.73;6.50;;;0.50;99.90;;;;;;5049928;28;20508;-51
2021/01/28 00:12:06;;;;;;;12.83;7.30;;;0.60;99.90;;;;;;5048804;28;20863;-50
2021/01/28 00:14:32;;;;;;;11.30;6.60;;;0.70;99.90;;;;;;5042641;28;21246;-49
2021/01/28 00:17:00;;;;;;;10.80;6.60;;;0.70;99.90;;;;;;5049691;28;20457;-51
2021/01/28 00:19:28;;;;;;;12.33;6.40;;;0.80;99.90;;;;;;5049887;28;20460;-51
2021/01/28 00:21:54;;;;;;;10.97;6.33;;;0.70;99.90;;;;;;5049488;28;20450;-50
2021/01/28 00:24:21;;;;;;;10.87;6.90;;;0.70;99.90;;;;;;5049470;28;20476;-50
2021/01/28 00:26:48;;;;;;;11.57;6.30;;;0.70;99.90;;;;;;5050149;28;20451;-50
2021/01/28 00:29:15;;;;;;;11.73;6.80;;;0.80;99.90;;;;;;5053357;28;20450;-50
2021/01/28 00:31:42;;;;;;;13.33;6.70;;;0.70;99.90;;;;;;5052997;28;20486;-50
2021/01/28 00:34:09;;;;;;;12.10;6.60;;;0.70;99.90;;;;;;5053206;28;21143;-50
2021/01/28 00:36:36;;;;;;;9.40;6.00;;;0.60;99.90;;;;;;5051730;28;20560;-50
2021/01/28 00:39:03;;;;;;;10.60;6.50;;;0.70;99.90;;;;;;5033584;28;20832;-50
2021/01/28 00:41:30;;;;;;;10.73;6.13;;;0.70;99.90;;;;;;5049833;28;20458;-50
2021/01/28 00:43:57;;;;;;;10.27;6.17;;;0.60;99.90;;;;;;5048619;28;21054;-50
2021/01/28 00:46:23;;;;;;;10.30;6.30;;;0.70;99.90;;;;;;5050733;28;20457;-50
2021/01/28 00:48:50;;;;;;;13.50;6.80;;;0.70;99.90;;;;;;5052527;28;20476;-50
2021/01/28 00:51:18;;;;;;;9.37;5.93;;;0.60;99.90;;;;;;5053248;28;20527;-50
2021/01/28 00:53:45;;;;;;;12.00;6.47;;;0.70;99.90;;;;;;5052957;28;20506;-51
2021/01/28 00:56:11;;;;;;;13.23;5.33;;;0.60;99.90;;;;;;5051224;28;20504;-51
2021/01/28 00:58:38;;;;;;;10.83;5.57;;;0.50;99.90;;;;;;5052821;28;20458;-51
2021/01/28 01:01:05;;;;;;;10.20;5.97;;;0.60;99.90;;;;;;5052968;28;20943;-51
2021/01/28 01:03:32;;;;;;;11.03;5.87;;;0.50;99.90;;;;;;5052983;28;20478;-51
2021/01/28 01:05:58;;;;;;;9.50;5.60;;;0.50;99.90;;;;;;5052470;28;20457;-52
2021/01/28 01:08:28;;;;;;;10.30;6.13;;;0.70;99.90;;;;;;5052814;28;20446;-52
2021/01/28 01:10:57;;;;;;;10.10;5.80;;;0.80;99.90;;;;;;5052836;28;20462;-51
2021/01/28 01:13:25;;;;;;;10.40;5.40;;;0.80;99.90;;;;;;5052488;28;21129;-52
2021/01/28 01:15:52;;;;;;;11.80;6.13;;;0.70;99.90;;;;;;5052736;28;20456;-52
2021/01/28 01:18:21;;;;;;;8.43;5.13;;;0.90;99.90;;;;;;5052389;28;20877;-52
2021/01/28 01:20:48;;;;;;;11.97;6.27;;;0.70;99.90;;;;;;5052675;28;20450;-52
2021/01/28 01:23:15;;;;;;;11.47;6.20;;;0.70;99.90;;;;;;5052378;28;20446;-53
2021/01/28 01:25:42;;;;;;;9.30;5.40;;;0.70;99.90;;;;;;5052156;28;20457;-52
2021/01/28 01:28:09;;;;;;;8.60;5.50;;;0.70;99.90;;;;;;5051847;28;20468;-52
2021/01/28 01:30:35;;;;;;;9.07;5.47;;;0.90;99.90;;;;;;5051944;28;20455;-52
2021/01/28 01:33:03;;;;;;;9.40;5.53;;;1.10;99.90;;;;;;5051574;28;20517;-52
2021/01/28 01:35:30;;;;;;;9.57;5.27;;;1.10;99.90;;;;;;5051732;28;20442;-52
2021/01/28 01:37:57;;;;;;;9.37;5.40;;;1.10;99.90;;;;;;5051133;28;20466;-52
2021/01/28 01:40:26;;;;;;;9.30;5.97;;;1.10;99.90;;;;;;5051600;28;20455;-52
2021/01/28 01:42:55;;;;;;;9.27;5.47;;;0.90;99.90;;;;;;5052317;28;20458;-52
2021/01/28 01:45:27;;;;;;;8.10;5.37;;;1.00;99.90;;;;;;5045246;28;20480;-52
2021/01/28 01:48:01;;;;;;;9.87;5.80;;;1.00;99.90;;;;;;5049070;28;20454;-52
2021/01/28 01:50:51;;;;;;;8.27;5.50;;;1.00;99.90;;;;;;5051769;28;20470;-52
2021/01/28 01:53:22;;;;;;;7.07;4.70;;;1.00;99.90;;;;;;5051897;28;20490;-52
2021/01/28 01:55:55;;;;;;;8.40;5.07;;;1.00;99.90;;;;;;5051257;28;20475;-52
2021/01/28 01:58:45;;;;;;;12.73;5.50;;;0.90;99.90;;;;;;5052088;28;20446;-51
2021/01/28 02:01:13;;;;;;;9.17;5.30;;;0.90;99.90;;;;;;5050918;28;20499;-52
2021/01/28 02:03:43;;;;;;;10.73;5.63;;;0.80;99.90;;;;;;5039684;28;20475;-52
2021/01/28 02:06:18;;;;;;;10.03;5.57;;;0.80;99.90;;;;;;5051648;28;20441;-51
2021/01/28 02:08:47;;;;;;;10.40;4.77;;;0.80;99.90;;;;;;5051701;28;20461;-52
2021/01/28 02:11:14;;;;;;;10.20;6.00;;;0.80;99.90;;;;;;5051776;28;20481;-52
2021/01/28 02:13:46;;;;;;;10.10;5.87;;;0.70;99.90;;;;;;5050611;28;20922;-52
2021/01/28 02:16:15;;;;;;;8.57;4.43;;;0.90;99.90;;;;;;5051838;28;20504;-52
2021/01/28 02:18:46;;;;;;;7.87;5.50;;;0.90;99.90;;;;;;5042438;28;20454;-51
2021/01/28 02:21:27;;;;;;;9.40;5.53;;;0.90;99.90;;;;;;5031578;28;20449;-52
2021/01/28 02:24:12;;;;;;;9.80;5.43;;;1.00;99.90;;;;;;5031403;28;20476;-52
2021/01/28 02:26:42;;;;;;;10.13;5.47;;;0.90;99.90;;;;;;5050725;28;20462;-52
2021/01/28 02:29:09;;;;;;;11.17;5.53;;;0.80;99.90;;;;;;5051550;28;20450;-52
2021/01/28 02:31:36;;;;;;;11.27;5.73;;;0.80;99.90;;;;;;5049655;28;20481;-52
2021/01/28 02:34:07;;;;;;;10.50;5.60;;;0.70;99.90;;;;;;5050923;28;20998;-53
2021/01/28 02:36:36;;;;;;;9.17;5.13;;;0.90;99.90;;;;;;5051002;28;20482;-52
2021/01/28 02:39:06;;;;;;;9.33;5.73;;;0.90;99.90;;;;;;5050686;28;20459;-51
2021/01/28 02:41:32;;;;;;;8.83;5.30;;;0.90;99.90;;;;;;5050685;28;20458;-52
2021/01/28 02:44:00;;;;;;;9.00;5.47;;;1.00;99.90;;;;;;5048196;28;20479;-51
2021/01/28 02:46:27;;;;;;;8.93;5.57;;;0.90;99.90;;;;;;5031057;28;20455;-51
2021/01/28 02:48:54;;;;;;;9.37;5.20;;;1.00;99.90;;;;;;5031461;28;20935;-52
2021/01/28 02:51:22;;;;;;;13.13;5.57;;;1.00;99.90;;;;;;5048239;28;20965;-52
2021/01/28 02:53:52;;;;;;;9.20;5.50;;;1.00;99.90;;;;;;5050040;28;20494;-52
2021/01/28 02:56:19;;;;;;;9.43;5.90;;;1.00;99.90;;;;;;5050625;28;20516;-51
2021/01/28 02:58:47;;;;;;;12.03;5.50;;;1.00;99.90;;;;;;5050848;28;20455;-52
2021/01/28 03:01:16;;;;;;;12.30;6.30;;;0.90;99.90;;;;;;5050133;28;20459;-53
2021/01/28 03:03:44;;;;;;;9.40;5.30;;;0.90;99.90;;;;;;5050512;28;20477;-51
2021/01/28 03:06:11;;;;;;;9.23;5.70;;;0.90;99.90;;;;;;5050306;28;20539;-53
2021/01/28 03:08:41;;;;;;;9.50;5.67;;;1.10;99.90;;;;;;5050111;28;20450;-53
2021/01/28 03:11:08;;;;;;;11.47;6.53;;;0.90;99.90;;;;;;5050163;28;20469;-52
2021/01/28 03:13:35;;;;;;;11.43;6.63;;;1.00;99.90;;;;;;5050443;28;20486;-52
2021/01/28 03:16:01;;;;;;;9.10;5.57;;;1.00;99.90;;;;;;5047237;28;20994;-52
2021/01/28 03:18:29;;;;;;;10.17;6.37;;;1.10;99.90;;;;;;5030801;28;20446;-52
2021/01/28 03:20:56;;;;;;;11.50;6.23;;;1.20;99.90;;;;;;5030500;28;20447;-52
2021/01/28 03:23:23;;;;;;;9.63;5.53;;;1.20;99.90;;;;;;5030380;28;20475;-53
2021/01/28 03:25:50;;;;;;;10.40;5.43;;;1.20;99.90;;;;;;5045007;28;20504;-52
2021/01/28 03:28:16;;;;;;;13.40;6.50;;;1.20;99.90;;;;;;5049674;28;20462;-53
2021/01/28 03:30:47;;;;;;;10.30;6.00;;;1.30;99.90;;;;;;5050169;28;20454;-53
2021/01/28 03:33:17;;;;;;;12.90;6.43;;;1.20;99.90;;;;;;5049236;28;20998;-52
2021/01/28 03:35:45;;;;;;;10.37;6.07;;;1.20;99.90;;;;;;5049639;28;20462;-52
2021/01/28 03:38:13;;;;;;;11.17;6.33;;;1.30;99.90;;;;;;5049869;28;20999;-53
2021/01/28 03:40:40;;;;;;;13.70;7.30;;;1.20;99.90;;;;;;5050257;28;20828;-53
2021/01/28 03:43:07;;;;;;;10.03;6.13;;;1.20;99.90;;;;;;5049830;28;20453;-53
2021/01/28 03:45:33;;;;;;;14.97;6.67;;;1.30;99.90;;;;;;5049430;28;20458;-53
2021/01/28 03:48:01;;;;;;;10.63;6.20;;;1.40;99.90;;;;;;5049587;28;20451;-51
2021/01/28 03:50:30;;;;;;;9.50;5.67;;;1.30;99.90;;;;;;5049262;28;20454;-52
2021/01/28 03:52:57;;;;;;;9.10;5.20;;;1.30;99.90;;;;;;5030280;28;20476;-53
2021/01/28 03:55:24;;;;;;;11.27;6.30;;;1.30;99.90;;;;;;5038830;28;20581;-53
2021/01/28 03:57:52;;;;;;;13.63;6.23;;;1.20;99.90;;;;;;5049700;28;20455;-52
2021/01/28 04:00:21;;;;;;;9.73;5.53;;;1.40;99.90;;;;;;5050484;28;20451;-52
2021/01/28 04:02:48;;;;;;;10.70;6.13;;;1.30;99.90;;;;;;5053008;28;20449;-52
2021/01/28 04:05:16;;;;;;;6.53;4.63;;;1.30;99.90;;;;;;5053395;28;20466;-53
2021/01/28 04:07:43;;;;;;;10.67;5.80;;;1.30;99.90;;;;;;5053794;28;20516;-53
2021/01/28 04:10:13;;;;;;;10.90;6.03;;;1.30;99.90;;;;;;5053775;28;20512;-53
2021/01/28 04:12:40;;;;;;;10.50;6.07;;;1.40;99.90;;;;;;5053844;28;20545;-53
2021/01/28 04:15:09;;;;;;;10.03;5.47;;;1.30;99.90;;;;;;5053167;28;21067;-52
2021/01/28 04:17:36;;;;;;;10.00;6.00;;;1.20;99.90;;;;;;5053962;28;20453;-53
2021/01/28 04:20:04;;;;;;;11.50;6.10;;;1.30;99.90;;;;;;5053374;28;20457;-53
2021/01/28 04:22:31;;;;;;;10.40;6.00;;;1.40;99.90;;;;;;5037196;28;20455;-53
2021/01/28 04:24:58;;;;;;;9.07;5.80;;;1.30;99.90;;;;;;5052723;28;21026;-53
2021/01/28 04:27:25;;;;;;;10.77;5.87;;;1.10;99.90;;;;;;5053315;28;20448;-55
2021/01/28 04:29:52;;;;;;;11.60;5.80;;;1.20;99.90;;;;;;5053148;28;20453;-53
2021/01/28 04:32:18;;;;;;;7.77;4.87;;;1.20;99.90;;;;;;5053430;28;20475;-53
2021/01/28 04:34:45;;;;;;;10.60;5.30;;;1.30;99.90;;;;;;5052988;28;20517;-54
2021/01/28 04:37:11;;;;;;;7.20;4.50;;;1.30;99.90;;;;;;5053140;28;20457;-53
2021/01/28 04:39:41;;;;;;;7.87;5.00;;;1.40;99.90;;;;;;5052739;28;20461;-54
2021/01/28 04:42:11;;;;;;;10.23;5.67;;;1.40;99.90;;;;;;5052803;28;20546;-54
2021/01/28 04:44:38;;;;;;;10.40;5.43;;;1.40;99.90;;;;;;5075160;22;20497;-50
2021/01/28 04:47:05;;;;;;;9.10;5.20;;;1.40;99.90;;;;;;5053234;28;20454;-50
2021/01/28 04:49:31;;;;;;;12.40;5.63;;;1.50;99.90;;;;;;5052964;28;20440;-50
2021/01/28 04:52:01;;;;;;;11.00;5.60;;;1.50;99.90;;;;;;5043990;28;20505;-50
2021/01/28 04:54:33;;;;;;;7.80;4.97;;;1.60;99.90;;;;;;5033217;28;20502;-49
2021/01/28 04:57:05;;;;;;;10.00;5.60;;;1.60;99.90;;;;;;5033124;28;20488;-50
2021/01/28 04:59:33;;;;;;;8.80;4.93;;;1.50;99.90;;;;;;5033205;28;20452;-50
2021/01/28 05:02:04;;;;;;;11.17;5.63;;;1.60;99.90;;;;;;5033160;28;20510;-50
2021/01/28 05:04:39;;;;;;;10.93;5.50;;;1.50;99.90;;;;;;5045668;28;20476;-50
2021/01/28 05:07:09;;;;;;;11.20;4.97;;;1.50;99.90;;;;;;5052795;28;20466;-50
2021/01/28 05:09:36;;;;;;;8.90;4.90;;;1.50;99.90;;;;;;5045440;28;20455;-50
2021/01/28 05:12:03;;;;;;;9.93;4.70;;;1.50;99.90;;;;;;5051688;28;20462;-51
2021/01/28 05:14:31;;;;;;;8.17;4.77;;;1.40;99.90;;;;;;5051305;28;20474;-50
2021/01/28 05:16:59;;;;;;;7.47;4.67;;;1.50;99.90;;;;;;5052135;28;20971;-50
2021/01/28 05:19:37;;;;;;;9.03;4.53;;;1.60;99.90;;;;;;5052520;28;20508;-50
2021/01/28 05:22:17;;;;;;;8.80;5.00;;;1.50;99.90;;;;;;5052254;28;20454;-49
2021/01/28 05:24:46;;;;;;;6.53;4.20;;;1.60;99.90;;;;;;5051731;28;20485;-51
2021/01/28 05:27:27;;;;;;;7.60;4.47;;;1.70;99.90;;;;;;5052563;28;20538;-49
2021/01/28 05:29:56;;;;;;;7.53;4.83;;;1.60;99.90;;;;;;5052096;28;20978;-50
2021/01/28 05:32:36;;;;;;;8.37;4.97;;;1.60;99.90;;;;;;5051380;28;20952;-50
2021/01/28 05:35:26;;;;;;;10.07;4.70;;;1.70;99.90;;;;;;5052089;28;20553;-50
2021/01/28 05:38:06;;;;;;;9.93;5.10;;;1.60;99.90;;;;;;5051986;28;20828;-49
2021/01/28 05:40:33;;;;;;;7.80;4.37;;;1.70;99.90;;;;;;5040090;28;20456;-49
2021/01/28 05:43:00;;;;;;;8.67;5.00;;;1.70;99.90;;;;;;5032414;28;20447;-49
2021/01/28 05:45:35;;;;;;;9.90;4.17;;;1.80;99.90;;;;;;5040566;28;20487;-49
2021/01/28 05:48:27;;;;;;;8.23;3.97;;;1.80;99.90;;;;;;5039555;28;20964;-49
2021/01/28 05:51:06;;;;;;;6.80;3.90;;;1.80;99.90;;;;;;5052039;28;20451;-50
2021/01/28 05:53:33;;;;;;;7.30;3.50;;;1.80;99.90;;;;;;5051781;28;21043;-50
2021/01/28 05:56:02;;;;;;;7.00;4.13;;;1.80;99.90;;;;;;5044592;28;20822;-50
2021/01/28 05:58:35;;;;;;;5.30;3.93;;;1.80;99.90;;;;;;5035451;28;20505;-49
2021/01/28 06:01:07;;;;;;;6.00;3.90;;;1.80;99.90;;;;;;5051960;28;20458;-50
2021/01/28 06:04:12;;;;;;;6.40;3.70;;;1.80;99.90;;;;;;5051975;28;20493;-49
2021/01/28 06:07:11;;;;;;;6.27;3.90;;;1.90;99.90;;;;;;5032170;28;20455;-49
2021/01/28 06:10:00;;;;;;;8.77;4.20;;;1.80;99.90;;;;;;5032123;28;20452;-50
2021/01/28 06:12:48;;;;;;;11.90;5.30;;;1.70;99.90;;;;;;5032927;28;20482;-49
2021/01/28 06:15:23;;;;;;;8.60;4.87;;;2.00;99.90;;;;;;5031329;28;20972;-49
2021/01/28 06:18:04;;;;;;;5.83;3.47;;;2.00;99.90;;;;;;5031580;28;20824;-49
2021/01/28 06:20:47;;;;;;;5.43;3.53;;;2.00;99.90;;;;;;5035160;28;20999;-49
2021/01/28 06:23:40;;;;;;;4.93;3.17;;;2.10;99.90;;;;;;5048392;28;20455;-48
2021/01/28 06:26:16;;;;;;;7.00;3.50;;;2.10;99.90;;;;;;5050801;28;20450;-49
2021/01/28 06:29:21;;;;;;;5.57;3.20;;;2.10;99.90;;;;;;5046639;28;20455;-49
2021/01/28 06:32:04;;;;;;;8.10;3.50;;;2.20;99.90;;;;;;5031336;28;20513;-49
2021/01/28 06:34:57;;;;;;;6.00;3.70;;;2.10;99.90;;;;;;5045066;28;20477;-50
2021/01/28 06:37:46;;;;;;;4.03;3.13;;;2.10;99.90;;;;;;5051165;28;20508;-48
2021/01/28 06:40:17;;;;;;;7.00;3.40;;;2.10;99.90;;;;;;5050850;28;20449;-49
2021/01/28 06:42:49;;;;;;;4.80;3.77;;;2.00;99.90;;;;;;5051276;28;20454;-49
2021/01/28 06:45:18;;;;;;;8.53;4.20;;;2.00;99.90;;;;;;5050314;28;20489;-49
2021/01/28 06:47:50;;;;;;;6.03;4.00;;;2.00;99.90;;;;;;5050820;28;20503;-48
2021/01/28 06:50:22;;;;;;;6.10;4.20;;;2.00;99.90;;;;;;5050932;28;20439;-48
2021/01/28 06:53:02;;;;;;;7.30;4.33;;;2.00;99.90;;;;;;5050770;28;20594;-48
2021/01/28 06:55:46;;;;;;;10.03;3.77;;;2.10;99.90;;;;;;5050770;28;20468;-49
2021/01/28 06:58:20;;;;;;;7.90;4.03;;;2.00;99.90;;;;;;5050923;28;20455;-48
2021/01/28 07:00:54;;;;;;;5.53;3.93;;;2.20;99.90;;;;;;5040444;28;20455;-48
2021/01/28 07:03:30;;;;;;;9.93;3.73;;;2.30;99.90;;;;;;5036224;28;20508;-49
2021/01/28 07:06:04;;;;;;;5.30;3.10;;;2.20;99.90;;;;;;5046038;28;20472;-50
2021/01/28 07:08:53;;;;;;;4.40;3.47;;;2.20;99.90;;;;;;5050454;28;20454;-50
2021/01/28 07:11:32;;;;;;;3.90;3.03;;;2.30;99.90;;;;;;5050596;28;20442;-50
2021/01/28 07:14:00;;;;;;;7.50;3.80;;;2.50;99.90;;;;;;5044964;28;20501;-49
2021/01/28 07:16:35;;;;;;;8.53;4.30;;;2.40;99.90;;;;;;5046070;28;20448;-49
2021/01/28 07:19:10;;;;;;;6.37;4.30;;;2.40;99.90;;;;;;5050340;28;20450;-49
2021/01/28 07:21:39;;;;;;;7.83;3.83;;;2.30;99.90;;;;;;5049906;28;20541;-49
2021/01/28 07:24:11;;;;;;;5.80;3.50;;;2.40;99.90;;;;;;5049545;28;20522;-50
2021/01/28 07:26:48;;;;;;;4.77;3.20;;;2.40;99.90;;;;;;5050518;28;20524;-50
2021/01/28 07:30:00;;;;;;;6.00;3.63;;;2.50;99.90;;;;;;5049767;28;20820;-49
2021/01/28 07:32:49;;;;;;;5.20;3.33;;;2.60;99.90;;;;;;5042307;28;20486;-49
2021/01/28 07:35:35;;;;;;;4.93;2.90;;;2.60;99.90;;;;;;5049994;28;20475;-50
2021/01/28 07:38:47;;;;;;;8.33;4.00;;;2.60;99.90;;;;;;5038542;28;20490;-50
2021/01/28 07:41:26;;;;;;;5.37;3.53;;;2.70;99.90;;;;;;5041063;28;20517;-49
2021/01/28 07:43:56;;;;;;;5.77;3.90;;;2.70;99.90;;;;;;5050025;28;20539;-50
2021/01/28 07:46:39;;;;;;;4.17;3.70;;;2.70;99.90;;;;;;5049868;28;20820;-49
2021/01/28 07:49:25;;;;;;;4.60;3.70;;;2.70;99.90;;;;;;5048615;28;20454;-49
2021/01/28 07:51:53;;;;;;;4.37;3.13;;;2.60;99.90;;;;;;5050310;28;20504;-49
2021/01/28 07:54:45;;;;;;;7.67;3.90;;;2.70;99.90;;;;;;5050020;28;20495;-50
2021/01/28 07:57:32;;;;;;;4.10;2.80;;;2.70;99.90;;;;;;5050614;28;20448;-50
2021/01/28 08:00:04;;;;;;;4.10;2.70;;;2.70;99.90;;;;;;5050251;28;20455;-50
2021/01/28 08:02:32;;;;;;;4.47;2.67;;;2.70;99.90;;;;;;5048912;28;20452;-49
2021/01/28 08:05:00;;;;;;;4.87;3.47;;;2.60;99.90;;;;;;5049324;28;20475;-49
2021/01/28 08:07:30;;;;;;;4.87;3.10;;;2.60;99.90;;;;;;5049583;28;21016;-50
2021/01/28 08:09:59;;;;;;;5.33;2.83;;;2.70;99.90;;;;;;5049250;28;20452;-50
2021/01/28 08:12:29;;;;;;;3.70;2.60;;;2.70;99.90;;;;;;5049458;28;20493;-50
2021/01/28 08:14:57;;;;;;;2.90;2.37;;;2.80;99.90;;;;;;5049466;28;20889;-50
2021/01/28 08:17:34;;;;;;;2.33;2.13;;;2.80;99.90;;;;;;5049739;28;20803;-50
2021/01/28 08:20:26;;;;;;;3.10;2.60;;;2.80;99.90;;;;;;5049213;28;21058;-50
2021/01/28 08:22:58;;;;;;;5.00;2.50;;;2.80;99.90;;;;;;5050033;28;20451;-50
2021/01/28 08:25:27;;;;;;;2.77;1.97;;;2.80;99.90;;;;;;5049509;28;20485;-50
2021/01/28 08:27:54;;;;;;;2.90;1.73;;;2.90;99.90;;;;;;5029897;28;20444;-49
2021/01/28 08:30:23;;;;;;;4.03;2.70;;;2.90;99.90;;;;;;5046278;28;20454;-50
2021/01/28 08:32:56;;;;;;;3.47;2.33;;;2.90;99.90;;;;;;5048560;28;20483;-50
2021/01/28 08:35:26;;;;;;;2.50;1.80;;;2.90;99.90;;;;;;5049104;28;20478;-50
2021/01/28 08:38:06;;;;;;;4.10;2.93;;;2.90;99.90;;;;;;5049460;28;20447;-50
2021/01/28 08:40:35;;;;;;;2.30;2.10;;;2.90;99.90;;;;;;5048907;28;20560;-50
2021/01/28 08:43:11;;;;;;;3.97;2.50;;;2.90;99.90;;;;;;5049565;28;20447;-50
2021/01/28 08:45:38;;;;;;;2.80;2.20;;;2.90;99.90;;;;;;5048696;28;20490;-49
2021/01/28 08:48:10;;;;;;;5.90;2.80;;;2.90;99.90;;;;;;5049276;28;20455;-49
2021/01/28 08:50:38;;;;;;;3.30;1.87;;;2.90;99.90;;;;;;5053483;28;20494;-49
2021/01/28 08:53:07;;;;;;;5.23;3.17;;;2.80;99.90;;;;;;5052670;28;20479;-50
2021/01/28 08:55:37;;;;;;;4.23;2.53;;;2.90;99.90;;;;;;5052824;28;20476;-50
2021/01/28 08:58:10;;;;;;;3.53;2.47;;;3.00;99.90;;;;;;5052931;28;20473;-50
2021/01/28 09:00:43;;;;;;;5.07;2.47;;;2.90;99.90;;;;;;5053029;28;20458;-50
2021/01/28 09:03:12;;;;;;;4.70;2.83;;;2.80;99.90;;;;;;5053047;28;20509;-50
2021/01/28 09:05:39;;;;;;;3.43;2.47;;;2.80;99.90;;;;;;5042361;28;20475;-50
2021/01/28 09:08:21;;;;;;;2.93;2.23;;;2.80;99.90;;;;;;5051988;28;20455;-50
2021/01/28 09:10:47;;;;;;;3.53;2.67;;;2.90;99.90;;;;;;5053067;28;20498;-52
2021/01/28 09:13:17;;;;;;;4.67;2.60;;;2.90;99.90;;;;;;5052716;28;20493;-53
2021/01/28 09:15:44;;;;;;;4.30;3.20;;;2.90;99.90;;;;;;5052108;28;21050;-52
2021/01/28 09:18:23;;;;;;;3.07;2.10;;;2.80;99.90;;;;;;5052819;28;20827;-50
2021/01/28 09:20:50;;;;;;;4.43;3.13;;;2.90;99.90;;;;;;5032723;28;20547;-52
2021/01/28 09:23:18;;;;;;;5.73;3.87;;;2.90;99.90;;;;;;5041018;28;20444;-52
2021/01/28 09:25:46;;;;;;;4.83;2.83;;;2.90;99.90;;;;;;5052441;28;20564;-52
2021/01/28 09:28:14;;;;;;;4.17;2.73;;;2.90;99.90;;;;;;5050771;28;20464;-50
2021/01/28 09:30:43;;;;;;;5.63;3.30;;;2.70;99.90;;;;;;5051140;28;20448;-50
2021/01/28 09:33:27;;;;;;;6.33;2.80;;;2.80;99.90;;;;;;5050776;28;20566;-49
2021/01/28 09:36:16;;;;;;;3.37;2.70;;;2.70;99.90;;;;;;5051717;28;20463;-51
2021/01/28 09:38:59;;;;;;;4.60;2.73;;;2.90;99.90;;;;;;5051040;28;20448;-52
2021/01/28 09:41:28;;;;;;;3.80;2.87;;;2.90;99.90;;;;;;5051141;28;20448;-51
2021/01/28 09:43:55;;;;;;;2.40;2.10;;;2.90;99.90;;;;;;5051001;28;20475;-50
2021/01/28 09:46:27;;;;;;;3.20;2.20;;;2.80;99.90;;;;;;5050388;28;20448;-49
2021/01/28 09:48:58;;;;;;;1.53;1.40;;;3.00;99.90;;;;;;5048422;28;20448;-52
2021/01/28 09:51:31;;;;;;;1.80;1.60;;;3.00;99.90;;;;;;5050564;28;20444;-52
2021/01/28 09:53:59;;;;;;;2.33;1.47;;;3.10;99.90;;;;;;5051684;28;20488;-52
2021/01/28 09:56:26;;;;;;;2.60;1.67;;;3.10;99.90;;;;;;5052157;28;20460;-51
2021/01/28 09:58:53;;;;;;;2.37;1.60;;;3.20;99.90;;;;;;5051595;28;20455;-50
2021/01/28 10:01:19;;;;;;;1.87;1.20;;;3.20;99.90;;;;;;5051650;28;20822;-49
2021/01/28 10:03:47;;;;;;;1.30;1.20;;;3.30;99.90;;;;;;5051730;28;20474;-49
2021/01/28 10:06:14;;;;;;;1.30;1.20;;;3.20;99.90;;;;;;5051578;28;20447;-49
2021/01/28 10:08:41;;;;;;;1.60;1.20;;;3.40;99.90;;;;;;5039098;28;20451;-50
2021/01/28 10:11:07;;;;;;;1.50;1.40;;;3.40;99.90;;;;;;5050899;28;20500;-49
2021/01/28 10:13:34;;;;;;;3.40;2.57;;;3.40;99.90;;;;;;5051351;28;20482;-51
2021/01/28 10:16:01;;;;;;;3.70;1.20;;;3.50;99.90;;;;;;5051674;28;20444;-49
2021/01/28 10:18:27;;;;;;;2.10;1.60;;;3.50;99.90;;;;;;5050774;28;20452;-52
2021/01/28 10:20:54;;;;;;;1.93;1.53;;;3.60;99.90;;;;;;5051609;28;20463;-50
2021/01/28 10:23:21;;;;;;;1.57;1.40;;;3.60;99.90;;;;;;5033246;28;20454;-49
2021/01/28 10:25:48;;;;;;;0.90;0.80;;;3.60;99.90;;;;;;5045902;28;20471;-52
2021/01/28 10:28:14;;;;;;;1.70;0.97;;;3.70;99.90;;;;;;5051665;28;20444;-49
2021/01/28 10:30:41;;;;;;;1.20;1.10;;;3.70;99.90;;;;;;5044454;28;20447;-49
2021/01/28 10:33:10;;;;;;;1.23;1.03;;;3.80;99.90;;;;;;5050861;28;20480;-52
2021/01/28 10:35:37;;;;;;;0.90;0.90;;;3.80;99.90;;;;;;5050455;28;21222;-49
2021/01/28 10:38:06;;;;;;;1.33;1.20;;;3.70;99.90;;;;;;5051326;28;20444;-49
2021/01/28 10:40:34;;;;;;;1.43;1.10;;;3.70;99.90;;;;;;5050464;28;20513;-49
2021/01/28 10:43:03;;;;;;;4.80;1.43;;;3.80;99.90;;;;;;5050911;28;20455;-50
2021/01/28 10:45:33;;;;;;;3.27;1.23;;;3.80;99.90;;;;;;5072492;22;20534;-50
2021/01/28 10:48:00;;;;;;;2.60;1.17;;;3.80;99.90;;;;;;5031065;28;20456;-51
2021/01/28 10:50:28;;;;;;;1.93;1.80;;;3.70;99.90;;;;;;5035686;28;20995;-50
2021/01/28 10:52:55;;;;;;;2.27;1.53;;;3.80;99.90;;;;;;5050990;28;20843;-51
2021/01/28 10:55:23;;;;;;;1.47;1.20;;;3.90;99.90;;;;;;5050777;28;20518;-50
2021/01/28 10:57:50;;;;;;;1.97;0.97;;;3.90;99.90;;;;;;5041978;28;20455;-51
2021/01/28 11:00:18;;;;;;;1.60;1.50;;;3.90;99.90;;;;;;5030862;28;20958;-51
2021/01/28 11:02:45;;;;;;;2.60;1.83;;;3.80;99.90;;;;;;5032682;28;20444;-51
2021/01/28 11:05:14;;;;;;;1.70;1.50;;;3.80;99.90;;;;;;5050455;28;21058;-51
2021/01/28 11:07:41;;;;;;;1.10;1.00;;;3.90;99.90;;;;;;5050797;28;20448;-51
2021/01/28 11:10:08;;;;;;;1.67;1.57;;;3.80;99.90;;;;;;5049955;28;20455;-51
2021/01/28 11:12:35;;;;;;;1.37;1.20;;;3.90;99.90;;;;;;5049083;28;20459;-51
2021/01/28 11:15:02;;;;;;;2.07;1.70;;;4.00;99.90;;;;;;5039481;28;20476;-51
2021/01/28 11:17:29;;;;;;;3.83;1.50;;;3.90;99.90;;;;;;5030810;28;20456;-51
2021/01/28 11:19:55;;;;;;;1.20;1.10;;;4.00;99.90;;;;;;5030547;28;20464;-50
2021/01/28 11:22:22;;;;;;;2.57;1.70;;;4.00;99.90;;;;;;5049822;28;20448;-51
2021/01/28 11:24:48;;;;;;;2.33;1.67;;;3.80;99.90;;;;;;5049378;28;20489;-51
2021/01/28 11:27:15;;;;;;;1.60;1.50;;;4.00;99.90;;;;;;5050405;28;20459;-51
2021/01/28 11:29:41;;;;;;;2.57;1.70;;;4.10;99.90;;;;;;5050013;28;20455;-51
2021/01/28 11:32:09;;;;;;;1.70;1.60;;;4.20;99.90;;;;;;5050319;28;20490;-51
2021/01/28 11:34:36;;;;;;;2.70;2.50;;;4.20;99.90;;;;;;5049724;28;20487;-51
2021/01/28 11:37:02;;;;;;;5.63;2.00;;;4.10;99.90;;;;;;5050135;28;20949;-51
2021/01/28 11:39:29;;;;;;;2.53;1.47;;;4.20;99.90;;;;;;5049661;28;20489;-51
2021/01/28 11:41:55;;;;;;;1.70;1.50;;;4.10;99.90;;;;;;5050175;28;20452;-51
2021/01/28 11:44:22;;;;;;;1.87;1.20;;;4.00;99.90;;;;;;5049804;28;20468;-52
2021/01/28 11:46:48;;;;;;;1.27;0.80;;;4.00;99.90;;;;;;5050082;28;20455;-52
2021/01/28 11:49:16;;;;;;;1.00;0.90;;;4.10;99.90;;;;;;5049570;28;20448;-51
2021/01/28 11:51:42;;;;;;;1.50;1.40;;;4.10;99.90;;;;;;5049917;28;20501;-52
2021/01/28 11:54:09;;;;;;;2.20;1.60;;;4.10;99.90;;;;;;5033085;28;20491;-52
2021/01/28 11:56:35;;;;;;;1.60;1.50;;;4.00;99.90;;;;;;5047619;28;20444;-51
2021/01/28 11:59:02;;;;;;;1.70;1.60;;;4.00;99.90;;;;;;5050133;28;20478;-51
2021/01/28 12:01:29;;;;;;;0.87;0.63;;;4.10;99.90;;;;;;5050119;28;20451;-51
2021/01/28 12:03:56;;;;;;;1.40;1.10;;;4.00;99.90;;;;;;5048621;28;20522;-51
2021/01/28 12:06:23;;;;;;;1.70;1.47;;;4.00;99.90;;;;;;5049269;28;20462;-51
2021/01/28 12:08:50;;;;;;;1.27;1.00;;;3.90;99.90;;;;;;5050136;28;20459;-52
2021/01/28 12:11:16;;;;;;;2.20;1.10;;;4.10;99.90;;;;;;5050168;28;20474;-52
2021/01/28 12:13:45;;;;;;;1.40;1.30;;;4.10;99.90;;;;;;5049648;28;20479;-52
2021/01/28 12:16:12;;;;;;;1.80;1.70;;;4.10;99.90;;;;;;5049306;28;20850;-52
2021/01/28 12:18:38;;;;;;;2.97;1.80;;;4.00;99.90;;;;;;5049837;28;20448;-52
2021/01/28 12:21:05;;;;;;;2.57;2.07;;;4.00;99.90;;;;;;5049127;28;21001;-52
2021/01/28 12:23:32;;;;;;;3.47;1.40;;;4.10;99.90;;;;;;5052000;28;20452;-51
2021/01/28 12:25:59;;;;;;;1.23;1.13;;;4.00;99.90;;;;;;5053755;28;20467;-51
2021/01/28 12:28:25;;;;;;;3.73;1.60;;;4.10;99.90;;;;;;5053476;28;21172;-51
2021/01/28 12:30:52;;;;;;;2.10;1.50;;;4.20;99.90;;;;;;5053590;28;20477;-51
2021/01/28 12:33:19;;;;;;;1.40;1.30;;;4.20;99.90;;;;;;5053156;28;20532;-51
2021/01/28 12:35:45;;;;;;;1.23;1.13;;;4.10;99.90;;;;;;5053336;28;20499;-52
2021/01/28 12:38:12;;;;;;;1.30;1.00;;;4.10;99.90;;;;;;5053122;28;20455;-51
2021/01/28 12:40:39;;;;;;;2.03;1.37;;;4.20;99.90;;;;;;5053399;28;20966;-51
2021/01/28 12:43:07;;;;;;;1.70;1.60;;;4.20;99.90;;;;;;5053480;28;20451;-51
2021/01/28 12:45:33;;;;;;;1.93;1.50;;;4.20;99.90;;;;;;5052563;28;20485;-52
2021/01/28 12:48:01;;;;;;;2.03;1.87;;;4.20;99.90;;;;;;5046484;28;20449;-51
2021/01/28 12:50:28;;;;;;;2.63;2.00;;;4.10;99.90;;;;;;5048059;28;20455;-51
2021/01/28 12:52:54;;;;;;;1.50;1.40;;;4.20;99.90;;;;;;5054529;28;20479;-50
2021/01/28 12:55:21;;;;;;;2.00;1.80;;;4.30;99.90;;;;;;5053455;28;21019;-50
2021/01/28 12:57:48;;;;;;;1.40;1.30;;;4.40;99.90;;;;;;5038524;28;20448;-50
2021/01/28 13:00:17;;;;;;;1.50;1.37;;;4.50;99.90;;;;;;5033264;28;21224;-50
2021/01/28 13:02:44;;;;;;;1.90;1.57;;;4.50;99.90;;;;;;5033179;28;20460;-51
2021/01/28 13:05:12;;;;;;;2.20;2.00;;;4.50;99.90;;;;;;5033167;28;20495;-52
2021/01/28 13:07:38;;;;;;;2.20;1.80;;;4.60;99.90;;;;;;5033339;28;20453;-52
2021/01/28 13:10:07;;;;;;;1.50;1.40;;;4.60;99.90;;;;;;5034407;28;20537;-52
2021/01/28 13:12:33;;;;;;;1.70;1.10;;;4.70;99.90;;;;;;5052683;28;20448;-51
2021/01/28 13:15:01;;;;;;;1.20;1.10;;;4.60;99.90;;;;;;5052292;28;20463;-52